Stations météo

Publicité
Metz-Frescaty, France (7090): Température de l'air & dewpoint: 19.06.2018 21:00:00 - 25.06.2018 21:00:00 (CEST)Metz-Frescaty, France (7090): Vitesse du vent & gusts: 19.06.2018 21:00:00 - 25.06.2018 21:00:00 (CEST)Metz-Frescaty, France (7090): Direction du vent: 19.06.2018 21:00:00 - 25.06.2018 21:00:00 (CEST)Metz-Frescaty, France (7090): Quantités de précipitations: 19.06.2018 21:00:00 - 25.06.2018 21:00:00 (CEST)
Date & Time tt [°C] td [°C] ff [km/h] ff [knt] fx [km/h] fx [knt] dd rr [mm]
25.06.2018 21:00:00 - - - - - - - -
25.06.2018 20:00:00 20,4 10,8 18 10 34 18 NNE -
25.06.2018 19:00:00 21,4 10,8 18 10 34 18 NNE 0,0
25.06.2018 18:00:00 22,2 10,7 18 10 29 16 NNE 0,0
25.06.2018 17:00:00 21,8 10,6 18 10 34 18 NNE 0,0
25.06.2018 16:00:00 21,1 11,7 13 7 29 16 NNE 0,0
25.06.2018 15:00:00 20,9 11,2 16 9 28 15 N 0,0
25.06.2018 14:00:00 20,1 10,8 13 7 26 14 NNE -
25.06.2018 13:00:00 18,6 11,2 15 8 28 15 N 0,0
25.06.2018 12:00:00 18,0 10,8 15 8 31 17 NE 0,0
25.06.2018 11:00:00 17,8 11,6 15 8 42 23 NNE 0,0
25.06.2018 10:00:00 17,8 11,4 18 10 31 17 NNE 0,0
25.06.2018 09:00:00 17,5 11,1 16 9 28 15 NNE 0,0
25.06.2018 08:00:00 15,9 11,7 11 6 16 9 N -
25.06.2018 07:00:00 14,6 11,4 8 4 13 7 N 0,0
25.06.2018 06:00:00 15,0 11,2 8 4 13 7 NNE 0,0
25.06.2018 05:00:00 14,9 10,7 5 3 13 7 N 0,0
25.06.2018 04:00:00 14,9 10,5 5 3 9 5 N 0,0
25.06.2018 03:00:00 14,7 10,3 4 2 8 4 NNW 0,0
25.06.2018 02:00:00 13,8 10,2 4 2 8 4 NNW -
25.06.2018 01:00:00 14,9 9,9 4 2 13 7 NNW 0,0
25.06.2018 00:00:00 16,2 10,1 9 5 16 9 N 0,0
24.06.2018 23:00:00 17,3 9,9 9 5 21 11 N 0,0
24.06.2018 22:00:00 17,6 9,0 8 4 18 10 NNW 0,0
24.06.2018 21:00:00 19,4 8,1 8 4 21 11 N 0,0
24.06.2018 20:00:00 21,1 7,7 9 5 22 12 N -
24.06.2018 19:00:00 21,5 7,3 11 6 26 14 N 0,0
24.06.2018 18:00:00 22,2 7,2 11 6 22 12 NNE 0,0
24.06.2018 17:00:00 22,8 9,6 11 6 26 14 NNE 0,0
24.06.2018 16:00:00 22,7 9,8 8 4 18 10 NNW 0,0
24.06.2018 15:00:00 21,6 8,1 8 4 18 10 NNW 0,0
24.06.2018 14:00:00 21,0 9,6 8 4 24 13 NW -
24.06.2018 13:00:00 20,1 9,9 8 4 18 10 NW 0,0
24.06.2018 12:00:00 19,3 10,0 8 4 16 9 NW 0,0
24.06.2018 11:00:00 19,0 10,0 5 3 13 7 NNW 0,0
24.06.2018 10:00:00 18,4 10,0 4 2 8 4 NW 0,0
24.06.2018 09:00:00 15,1 10,1 2 1 4 2 W 0,0
24.06.2018 08:00:00 13,2 9,6 0 0 9 5 N -
24.06.2018 07:00:00 11,3 9,6 2 1 8 4 NW 0,0
24.06.2018 06:00:00 10,3 9,1 4 2 8 4 NW 0,0
24.06.2018 05:00:00 9,5 8,7 0 0 8 4 N 0,0
24.06.2018 04:00:00 10,4 9,2 5 3 9 5 WNW 0,0
24.06.2018 03:00:00 10,5 8,9 0 0 9 5 N 0,0
24.06.2018 02:00:00 10,9 9,5 5 3 9 5 NW -
24.06.2018 01:00:00 11,0 8,9 2 1 4 2 W 0,0
24.06.2018 00:00:00 11,9 9,1 0 0 8 4 N 0,0
23.06.2018 23:00:00 13,1 8,8 4 2 9 5 WNW 0,0
23.06.2018 22:00:00 15,5 8,2 5 3 16 9 N 0,0
23.06.2018 21:00:00 16,8 7,7 16 9 31 17 NNE 0,0
23.06.2018 20:00:00 18,5 9,0 21 11 34 18 NNE -
23.06.2018 19:00:00 19,6 9,2 18 10 29 16 NNE 0,0
23.06.2018 18:00:00 20,4 8,7 15 8 28 15 N 0,0
23.06.2018 17:00:00 20,4 8,4 18 10 28 15 NNE 0,0
23.06.2018 16:00:00 20,8 7,8 13 7 29 16 NNE 0,0
23.06.2018 15:00:00 20,6 8,6 8 4 28 15 NNE 0,0
23.06.2018 14:00:00 19,0 7,1 15 8 28 15 NNE -
23.06.2018 13:00:00 18,0 6,5 11 6 22 12 NE 0,0
23.06.2018 12:00:00 16,5 6,9 8 4 24 13 NE 0,0
23.06.2018 11:00:00 15,1 7,1 11 6 22 12 NNE 0,0
23.06.2018 10:00:00 14,4 7,4 11 6 22 12 NNE 0,0
23.06.2018 09:00:00 13,3 7,1 15 8 22 12 NNE 0,0
23.06.2018 08:00:00 11,9 8,0 8 4 13 7 NNE -
23.06.2018 07:00:00 10,0 8,1 4 2 9 5 NW 0,0
23.06.2018 06:00:00 7,6 7,0 4 2 5 3 N 0,0
23.06.2018 05:00:00 7,9 6,8 4 2 9 5 WNW 0,0
23.06.2018 04:00:00 8,9 7,2 4 2 8 4 NW 0,0
23.06.2018 03:00:00 8,8 7,2 4 2 8 4 NNW 0,0
23.06.2018 02:00:00 8,7 7,1 4 2 8 4 WNW -
23.06.2018 01:00:00 10,2 6,7 4 2 8 4 WNW 0,0
23.06.2018 00:00:00 11,4 7,1 5 3 9 5 NW 0,0
22.06.2018 23:00:00 11,9 7,0 5 3 11 6 NW 0,0
22.06.2018 22:00:00 14,5 6,1 8 4 13 7 N 0,0
22.06.2018 21:00:00 16,4 5,9 8 4 24 13 NNW 0,0
22.06.2018 20:00:00 17,5 6,1 18 10 31 17 NNE -
22.06.2018 19:00:00 19,0 6,1 15 8 26 14 NNE 0,0
22.06.2018 18:00:00 19,0 5,8 11 6 24 13 N 0,0
22.06.2018 17:00:00 18,9 6,0 9 5 29 16 N 0,0
22.06.2018 16:00:00 18,6 6,1 9 5 26 14 NW 0,0
22.06.2018 15:00:00 18,9 6,4 13 7 31 17 NNW 0,0
22.06.2018 14:00:00 17,9 5,8 15 8 28 15 NNW -
22.06.2018 13:00:00 16,4 5,9 11 6 26 14 NW 0,0
22.06.2018 12:00:00 15,4 6,4 11 6 26 14 NNW 0,0
22.06.2018 11:00:00 15,0 5,8 13 7 28 15 N 0,0
22.06.2018 10:00:00 14,2 6,8 11 6 22 12 NNW 0,0
22.06.2018 09:00:00 13,0 6,3 11 6 21 11 NW 0,0
22.06.2018 08:00:00 11,1 6,0 8 4 15 8 W -
22.06.2018 07:00:00 9,2 5,9 8 4 13 7 WNW 0,0
22.06.2018 06:00:00 7,5 5,3 5 3 9 5 WNW 0,0
22.06.2018 05:00:00 7,6 5,6 5 3 8 4 W 0,0
22.06.2018 04:00:00 8,8 5,7 5 3 16 9 WNW 0,0
22.06.2018 03:00:00 9,2 6,1 5 3 13 7 NW 0,0
22.06.2018 02:00:00 9,7 5,7 5 3 18 10 NW -
22.06.2018 01:00:00 10,9 5,4 8 4 16 9 NNW 0,0
22.06.2018 00:00:00 11,8 4,3 8 4 22 12 NNW 0,0
21.06.2018 23:00:00 13,1 3,7 11 6 34 18 NNW 0,0
21.06.2018 22:00:00 14,6 4,3 13 7 35 19 N 0,0
21.06.2018 21:00:00 16,8 4,8 15 8 35 19 N 0,0
21.06.2018 20:00:00 19,0 5,4 15 8 35 19 N -
21.06.2018 19:00:00 20,3 5,9 15 8 34 18 N 0,0
21.06.2018 18:00:00 21,1 6,6 15 8 34 18 N 0,0
21.06.2018 17:00:00 22,1 8,6 16 9 37 20 NW 0,0
21.06.2018 16:00:00 21,6 10,4 15 8 34 18 NNW 0,0
21.06.2018 15:00:00 21,8 10,6 13 7 35 19 NNW 0,0
21.06.2018 14:00:00 20,3 12,3 16 9 34 18 NW -
21.06.2018 13:00:00 21,6 13,5 15 8 39 21 NW 0,0
21.06.2018 12:00:00 20,7 14,6 18 10 37 20 WNW 0,0
21.06.2018 11:00:00 22,8 14,9 18 10 34 18 WNW 0,0
21.06.2018 10:00:00 22,2 14,8 9 5 26 14 W 0,0
21.06.2018 09:00:00 20,7 14,3 13 7 26 14 WNW 0,0
21.06.2018 08:00:00 19,9 15,7 4 2 8 4 NW -
21.06.2018 07:00:00 18,0 15,3 0 0 9 5 N 0,0
21.06.2018 06:00:00 15,0 14,2 4 2 8 4 NW 0,0
21.06.2018 05:00:00 16,6 14,4 5 3 11 6 WNW 0,0
21.06.2018 04:00:00 16,7 14,3 4 2 16 9 WNW 0,0
21.06.2018 03:00:00 19,8 14,6 9 5 24 13 NW 0,0
21.06.2018 02:00:00 20,9 14,8 13 7 26 14 WNW -
21.06.2018 01:00:00 21,2 14,8 9 5 22 12 NW 0,0
21.06.2018 00:00:00 21,1 15,4 4 2 9 5 NW 0,0
20.06.2018 23:00:00 21,4 15,9 2 1 11 6 WNW 0,0
20.06.2018 22:00:00 23,9 16,7 5 3 11 6 NW 0,0
20.06.2018 21:00:00 26,7 16,0 5 3 18 10 W 0,0
20.06.2018 20:00:00 28,6 15,2 8 4 18 10 NW -
20.06.2018 19:00:00 29,4 15,9 8 4 16 9 NW 0,0
20.06.2018 18:00:00 29,8 16,2 8 4 18 10 NNW 0,0
20.06.2018 17:00:00 29,5 16,3 8 4 16 9 NW 0,0
20.06.2018 16:00:00 28,4 15,7 8 4 16 9 N 0,0
20.06.2018 15:00:00 29,0 16,5 5 3 16 9 NNE 0,0
20.06.2018 14:00:00 28,3 17,5 5 3 18 10 S -
20.06.2018 13:00:00 26,8 16,4 5 3 13 7 SSE 0,0
20.06.2018 12:00:00 25,5 16,6 5 3 13 7 SE 0,0
20.06.2018 11:00:00 24,5 16,5 4 2 15 8 ESE 0,0
20.06.2018 10:00:00 23,0 16,5 4 2 9 5 ESE 0,0
20.06.2018 09:00:00 20,2 16,0 5 3 13 7 NE 0,0
20.06.2018 08:00:00 18,2 15,8 11 6 15 8 NNE -
20.06.2018 07:00:00 15,6 15,1 2 1 4 2 NNW 0,0
20.06.2018 06:00:00 12,9 12,7 0 0 4 2 N 0,0
20.06.2018 05:00:00 13,1 13,1 2 1 5 3 WNW 0,2
20.06.2018 04:00:00 13,7 13,7 4 2 5 3 NW 0,0
20.06.2018 03:00:00 13,7 12,9 0 0 8 4 N 0,0
20.06.2018 02:00:00 15,3 14,3 5 3 9 5 NW -
20.06.2018 01:00:00 15,6 14,0 5 3 8 4 NW 0,0
20.06.2018 00:00:00 16,2 14,6 5 3 9 5 WNW 0,0
19.06.2018 23:00:00 17,1 14,7 5 3 9 5 WNW 0,0
19.06.2018 22:00:00 18,5 15,4 4 2 9 5 NW 0,0
19.06.2018 21:00:00 20,0 15,4 4 2 9 5 NW 0,0

tt = Température de l'air
td = dewpoint
ff = Vitesse du vent
fx = gusts
dd = Direction du vent
rr = Quantités de précipitations

stations d'obs. à proximité